Time;durP1;ratioP1;P1;durP2;ratioP2;P2;SDS_P1;SDS_P2;PMS_P1;PMS_P2;Temp;Humidity;BMP_temperature;BMP_pressure;BME280_temperature;BME280_humidity;BME280_pressure;Samples;Min_cycle;Max_cycle;Signal;HPM_P1;HPM_P2
2022/03/27 00:02:06;;;;;;;14.60;10.90;;;10.40;64.60;;;;;;5063611;28;20546;-46
2022/03/27 00:04:35;;;;;;;12.53;9.70;;;10.40;64.60;;;;;;5060749;28;20493;-46
2022/03/27 00:07:02;;;;;;;15.83;10.00;;;10.40;65.00;;;;;;5060595;28;20537;-46
2022/03/27 00:09:28;;;;;;;14.57;10.60;;;10.30;64.90;;;;;;5042834;28;20462;-45
2022/03/27 00:11:55;;;;;;;15.50;10.80;;;10.30;65.00;;;;;;5058733;28;20462;-45
2022/03/27 00:14:22;;;;;;;15.37;10.90;;;10.30;65.00;;;;;;5049526;28;20454;-45
2022/03/27 00:16:49;;;;;;;14.00;9.43;;;10.20;65.10;;;;;;5060727;28;20462;-46
2022/03/27 00:19:16;;;;;;;14.90;9.73;;;10.20;65.20;;;;;;5049308;28;20557;-46
2022/03/27 00:21:44;;;;;;;15.33;10.60;;;10.20;65.30;;;;;;5062148;28;20953;-45
2022/03/27 00:24:11;;;;;;;17.00;9.50;;;10.20;65.40;;;;;;5057507;28;20549;-45
2022/03/27 00:26:38;;;;;;;16.67;10.30;;;10.10;65.40;;;;;;5058935;28;20901;-45
2022/03/27 00:29:04;;;;;;;15.10;11.20;;;10.10;65.60;;;;;;5057064;28;20856;-45
2022/03/27 00:31:35;;;;;;;14.90;10.37;;;10.10;65.70;;;;;;5057787;28;20465;-45
2022/03/27 00:34:03;;;;;;;17.27;10.80;;;10.10;65.90;;;;;;5059668;28;20497;-45
2022/03/27 00:36:30;;;;;;;18.53;10.37;;;10.10;65.90;;;;;;5053058;28;20457;-46
2022/03/27 00:38:57;;;;;;;13.80;9.40;;;10.00;66.00;;;;;;5052249;28;20484;-46
2022/03/27 00:41:24;;;;;;;15.83;10.80;;;10.00;66.20;;;;;;5060777;28;20563;-45
2022/03/27 00:43:51;;;;;;;13.70;10.00;;;10.00;66.20;;;;;;5056637;28;20474;-45
2022/03/27 00:46:18;;;;;;;15.27;10.37;;;9.90;66.40;;;;;;5047965;28;21059;-46
2022/03/27 00:48:46;;;;;;;20.03;11.00;;;9.90;66.50;;;;;;5037183;28;20459;-45
2022/03/27 00:51:13;;;;;;;17.80;12.10;;;9.90;66.70;;;;;;5060711;28;20557;-45
2022/03/27 00:53:40;;;;;;;20.37;11.67;;;9.80;66.70;;;;;;5056631;28;20522;-45
2022/03/27 00:56:07;;;;;;;15.07;11.90;;;9.80;66.80;;;;;;5044550;28;20447;-45
2022/03/27 00:58:33;;;;;;;15.83;10.20;;;9.80;67.00;;;;;;5058718;28;20996;-45
2022/03/27 01:01:03;;;;;;;21.40;13.27;;;9.80;67.10;;;;;;5056005;28;20463;-45
2022/03/27 01:03:31;;;;;;;17.97;11.80;;;9.80;67.20;;;;;;5061726;28;20450;-45
2022/03/27 01:05:59;;;;;;;19.37;11.43;;;9.70;67.20;;;;;;5058035;28;20468;-45
2022/03/27 01:11:21;;;;;;;14.80;10.97;;;9.70;67.50;;;;;;5058601;28;20836;-45
2022/03/27 01:13:56;;;;;;;22.47;12.93;;;9.70;67.50;;;;;;5063030;28;20485;-45
2022/03/27 01:16:38;;;;;;;19.30;11.67;;;9.60;67.60;;;;;;5052490;28;20906;-45
2022/03/27 01:19:06;;;;;;;19.67;11.90;;;9.60;67.70;;;;;;5060396;28;20662;-45
2022/03/27 01:21:35;;;;;;;16.77;11.90;;;9.50;68.00;;;;;;5055384;28;20448;-45
2022/03/27 01:24:02;;;;;;;19.67;11.97;;;9.50;68.10;;;;;;5059111;28;20469;-45
2022/03/27 01:26:29;;;;;;;16.40;11.90;;;9.50;68.20;;;;;;5060989;28;20459;-45
2022/03/27 01:28:56;;;;;;;17.27;11.47;;;9.50;68.20;;;;;;5056982;28;20533;-45
2022/03/27 01:31:23;;;;;;;21.63;11.97;;;9.50;68.30;;;;;;5057096;28;20452;-45
2022/03/27 01:33:50;;;;;;;18.13;11.43;;;9.40;68.50;;;;;;5060925;28;20494;-46
2022/03/27 01:36:27;;;;;;;19.27;13.37;;;9.40;68.70;;;;;;5051120;28;20455;-46
2022/03/27 01:38:55;;;;;;;19.47;12.57;;;9.40;68.80;;;;;;5059796;28;21200;-45
2022/03/27 01:41:23;;;;;;;18.90;11.30;;;9.40;68.80;;;;;;5060296;28;20489;-45
2022/03/27 01:43:50;;;;;;;19.03;11.90;;;9.40;68.90;;;;;;5057710;28;20461;-45
2022/03/27 01:46:18;;;;;;;18.07;11.77;;;9.40;69.20;;;;;;5059038;28;20467;-45
2022/03/27 01:48:45;;;;;;;15.90;10.77;;;9.40;69.10;;;;;;5057602;28;20479;-45
2022/03/27 01:51:12;;;;;;;16.93;11.57;;;9.30;69.10;;;;;;5059713;28;20536;-45
2022/03/27 01:53:40;;;;;;;15.77;11.30;;;9.30;69.20;;;;;;5057084;28;20589;-45
2022/03/27 01:56:08;;;;;;;20.70;13.77;;;9.30;69.00;;;;;;5058070;28;20453;-45
2022/03/27 01:58:39;;;;;;;13.53;9.40;;;9.30;69.10;;;;;;5059498;28;20455;-45
2022/03/27 02:01:07;;;;;;;17.27;11.10;;;9.20;69.10;;;;;;5040086;28;20451;-45
2022/03/27 02:03:35;;;;;;;15.50;10.60;;;9.20;69.20;;;;;;5059223;28;20454;-45
2022/03/27 02:06:03;;;;;;;16.30;10.07;;;9.10;69.30;;;;;;5055831;28;20483;-45
2022/03/27 02:08:34;;;;;;;16.63;11.50;;;9.10;69.50;;;;;;5057948;28;20462;-45
2022/03/27 02:11:02;;;;;;;15.63;11.97;;;9.10;69.80;;;;;;5058798;28;21105;-46
2022/03/27 02:13:29;;;;;;;16.00;11.30;;;9.10;70.00;;;;;;5042406;28;20490;-46
2022/03/27 02:16:02;;;;;;;16.53;11.50;;;9.10;70.10;;;;;;5051296;28;20451;-45
2022/03/27 02:18:30;;;;;;;18.03;12.50;;;9.10;70.30;;;;;;5054158;28;20513;-45
2022/03/27 02:20:58;;;;;;;12.57;10.23;;;9.10;70.30;;;;;;5056205;28;20527;-45
2022/03/27 02:23:25;;;;;;;17.93;12.40;;;9.10;70.50;;;;;;5056470;28;22101;-45
2022/03/27 02:25:53;;;;;;;17.70;12.10;;;9.10;70.50;;;;;;5039335;28;20458;-45
2022/03/27 02:28:20;;;;;;;14.87;11.67;;;9.00;70.50;;;;;;5044733;28;20455;-45
2022/03/27 02:30:47;;;;;;;16.90;11.00;;;9.00;70.70;;;;;;5057790;28;20469;-45
2022/03/27 02:33:14;;;;;;;15.93;12.03;;;9.00;70.80;;;;;;5046891;28;20975;-45
2022/03/27 02:35:40;;;;;;;17.97;11.50;;;9.10;71.00;;;;;;5058441;28;20546;-45
2022/03/27 02:38:07;;;;;;;17.27;11.80;;;9.10;70.90;;;;;;5055992;28;20481;-46
2022/03/27 02:40:35;;;;;;;15.43;10.93;;;9.10;70.80;;;;;;5056470;28;20466;-46
2022/03/27 02:43:03;;;;;;;23.60;15.07;;;9.00;70.90;;;;;;5056697;28;20471;-46
2022/03/27 02:45:31;;;;;;;18.53;12.33;;;9.00;71.10;;;;;;5044568;28;20806;-46
2022/03/27 02:47:59;;;;;;;20.73;13.30;;;9.00;71.20;;;;;;5057954;28;20838;-48
2022/03/27 02:50:27;;;;;;;15.27;12.53;;;9.00;71.20;;;;;;5037520;28;20501;-49
2022/03/27 02:52:54;;;;;;;18.00;13.13;;;9.00;71.50;;;;;;5042294;28;20577;-48
2022/03/27 02:55:22;;;;;;;14.60;12.20;;;8.90;71.40;;;;;;5055598;28;20974;-49
2022/03/27 02:57:50;;;;;;;23.23;13.40;;;8.90;71.40;;;;;;5057612;28;20454;-48
2022/03/27 03:00:17;;;;;;;19.10;11.73;;;8.90;71.60;;;;;;5047166;28;20846;-49
2022/03/27 03:02:44;;;;;;;17.80;11.60;;;8.90;71.70;;;;;;5059214;28;20455;-49
2022/03/27 03:05:12;;;;;;;17.03;12.20;;;8.90;71.60;;;;;;5058528;28;20535;-49
2022/03/27 03:07:41;;;;;;;18.53;11.47;;;8.90;71.70;;;;;;5058701;28;20465;-48
2022/03/27 03:10:09;;;;;;;18.60;12.60;;;8.90;71.80;;;;;;5029132;28;20837;-48
2022/03/27 03:12:39;;;;;;;18.60;12.47;;;8.80;71.70;;;;;;5056938;28;20463;-48
2022/03/27 03:15:06;;;;;;;19.63;13.37;;;8.80;71.70;;;;;;5059903;28;20916;-49
2022/03/27 03:17:34;;;;;;;19.60;13.50;;;8.70;71.70;;;;;;5056131;28;20461;-48
2022/03/27 03:20:01;;;;;;;21.60;14.90;;;8.70;71.90;;;;;;5057365;28;20954;-48
2022/03/27 03:22:28;;;;;;;22.30;14.60;;;8.70;71.80;;;;;;5059247;28;20447;-48
2022/03/27 03:24:55;;;;;;;17.80;12.53;;;8.70;71.90;;;;;;5055604;28;20921;-48
2022/03/27 03:27:21;;;;;;;19.47;13.70;;;8.60;71.80;;;;;;5056374;28;20462;-48
2022/03/27 03:29:48;;;;;;;17.77;13.20;;;8.60;71.90;;;;;;5058874;28;20501;-49
2022/03/27 03:32:15;;;;;;;18.97;13.17;;;8.60;71.90;;;;;;5055649;28;20455;-49
2022/03/27 03:34:42;;;;;;;17.87;13.73;;;8.60;71.90;;;;;;5055130;28;20613;-48
2022/03/27 03:37:09;;;;;;;20.47;13.93;;;8.50;72.00;;;;;;5058185;28;20461;-48
2022/03/27 03:39:36;;;;;;;15.80;12.43;;;8.50;72.00;;;;;;5038047;28;20996;-48
2022/03/27 03:42:03;;;;;;;20.20;12.70;;;8.50;72.10;;;;;;5055937;28;20442;-48
2022/03/27 03:44:30;;;;;;;20.23;12.50;;;8.50;72.30;;;;;;5058393;28;20467;-49
2022/03/27 03:46:56;;;;;;;19.30;13.83;;;8.50;72.20;;;;;;5056920;28;20479;-48
2022/03/27 03:49:24;;;;;;;18.77;10.80;;;8.50;72.30;;;;;;5048313;28;20534;-48
2022/03/27 03:51:51;;;;;;;21.13;11.63;;;8.40;72.40;;;;;;5045506;28;20994;-48
2022/03/27 03:54:18;;;;;;;17.30;12.93;;;8.40;72.50;;;;;;5042094;28;20488;-48
2022/03/27 03:56:46;;;;;;;21.10;11.57;;;8.40;72.60;;;;;;5038516;28;20447;-49
2022/03/27 03:59:13;;;;;;;20.37;12.40;;;8.30;72.60;;;;;;5059999;28;20976;-48
2022/03/27 04:01:57;;;;;;;19.70;12.03;;;8.30;72.70;;;;;;5059522;28;20871;-48
2022/03/27 04:04:25;;;;;;;17.70;12.70;;;8.30;72.80;;;;;;5039081;28;20460;-48
2022/03/27 04:06:52;;;;;;;19.43;11.40;;;8.30;72.90;;;;;;5058897;28;20949;-48
2022/03/27 04:09:20;;;;;;;18.60;11.30;;;8.30;72.90;;;;;;5059995;28;20477;-48
2022/03/27 04:11:47;;;;;;;23.00;13.23;;;8.30;72.90;;;;;;5057730;28;20511;-48
2022/03/27 04:14:14;;;;;;;20.23;11.87;;;8.20;72.90;;;;;;5058011;28;20486;-49
2022/03/27 04:16:41;;;;;;;17.47;11.67;;;8.20;73.00;;;;;;5044767;28;20459;-48
2022/03/27 04:19:07;;;;;;;21.73;13.30;;;8.20;73.10;;;;;;5057625;28;20921;-49
2022/03/27 04:21:34;;;;;;;16.50;11.63;;;8.20;73.20;;;;;;5044095;28;20513;-48
2022/03/27 04:24:01;;;;;;;20.00;12.13;;;8.10;73.20;;;;;;5053983;28;20474;-48
2022/03/27 04:26:32;;;;;;;17.80;12.23;;;8.10;73.30;;;;;;5052706;28;20475;-48
2022/03/27 04:28:59;;;;;;;21.87;13.63;;;8.10;73.30;;;;;;5048467;28;20453;-48
2022/03/27 04:31:28;;;;;;;18.83;13.43;;;8.10;73.40;;;;;;5037419;28;20537;-48
2022/03/27 04:33:55;;;;;;;18.63;13.57;;;8.10;73.60;;;;;;5054207;28;20547;-47
2022/03/27 04:36:22;;;;;;;19.20;12.60;;;8.10;73.70;;;;;;5057914;28;20800;-48
2022/03/27 04:38:49;;;;;;;24.07;13.70;;;8.10;73.60;;;;;;5058633;28;20469;-48
2022/03/27 04:41:16;;;;;;;25.97;13.53;;;8.10;73.80;;;;;;5059641;28;20862;-48
2022/03/27 04:43:47;;;;;;;16.70;12.10;;;8.00;73.90;;;;;;5060070;28;20846;-48
2022/03/27 04:46:15;;;;;;;25.13;13.70;;;8.00;74.00;;;;;;5015921;28;20967;-48
2022/03/27 04:48:43;;;;;;;18.17;12.20;;;8.00;74.00;;;;;;5057210;28;20551;-48
2022/03/27 04:51:11;;;;;;;21.20;12.70;;;8.00;74.30;;;;;;5063550;28;20486;-48
2022/03/27 04:53:38;;;;;;;21.37;12.50;;;8.00;74.30;;;;;;5049369;28;20954;-48
2022/03/27 04:56:06;;;;;;;27.47;14.70;;;8.00;74.30;;;;;;5063342;28;20931;-48
2022/03/27 04:58:33;;;;;;;21.20;13.13;;;8.00;74.30;;;;;;5060048;28;20491;-47
2022/03/27 05:01:00;;;;;;;20.03;12.73;;;7.90;74.30;;;;;;5059452;28;20972;-48
2022/03/27 05:03:27;;;;;;;21.67;12.57;;;7.90;74.30;;;;;;5058121;28;20473;-48
2022/03/27 05:05:54;;;;;;;18.10;12.20;;;7.90;74.30;;;;;;5061518;28;20489;-48
2022/03/27 05:08:20;;;;;;;16.60;12.20;;;7.90;74.50;;;;;;5062585;28;20455;-48
2022/03/27 05:10:47;;;;;;;21.07;11.97;;;7.90;74.50;;;;;;5058822;28;20466;-48
2022/03/27 05:13:14;;;;;;;19.10;12.03;;;7.90;74.50;;;;;;5061497;28;20536;-48
2022/03/27 05:15:41;;;;;;;19.00;12.10;;;7.90;74.50;;;;;;5061459;28;20546;-48
2022/03/27 05:18:08;;;;;;;18.57;12.43;;;7.90;74.60;;;;;;5055870;28;20466;-48
2022/03/27 05:20:38;;;;;;;18.43;12.00;;;7.90;74.70;;;;;;5052980;28;20454;-48
2022/03/27 05:23:05;;;;;;;17.90;12.67;;;7.90;74.80;;;;;;5059415;28;20458;-48
2022/03/27 05:25:40;;;;;;;19.93;11.90;;;7.90;74.70;;;;;;5042135;28;20496;-48
2022/03/27 05:28:09;;;;;;;16.63;11.27;;;7.90;74.70;;;;;;5061638;28;20453;-48
2022/03/27 05:30:38;;;;;;;18.83;11.10;;;7.90;74.80;;;;;;5047346;28;20954;-48
2022/03/27 05:33:05;;;;;;;25.30;12.73;;;7.90;74.90;;;;;;5060038;28;20467;-47
2022/03/27 05:35:32;;;;;;;19.73;11.23;;;7.90;74.90;;;;;;5055316;28;20501;-47
2022/03/27 05:38:03;;;;;;;18.40;12.77;;;7.90;75.00;;;;;;5058268;28;20477;-47
2022/03/27 05:40:30;;;;;;;24.90;13.90;;;7.90;75.10;;;;;;5056756;28;20455;-48
2022/03/27 05:42:56;;;;;;;21.17;13.60;;;7.90;75.00;;;;;;5046670;28;20451;-48
2022/03/27 05:45:23;;;;;;;17.50;10.93;;;7.90;75.10;;;;;;5057354;28;20468;-48
2022/03/27 05:47:51;;;;;;;19.47;12.43;;;7.90;75.10;;;;;;5056923;28;20486;-48
2022/03/27 05:50:22;;;;;;;16.90;11.57;;;7.90;75.20;;;;;;5059099;28;20454;-48
2022/03/27 05:52:50;;;;;;;19.53;11.70;;;7.90;75.20;;;;;;5061785;28;20531;-48
2022/03/27 05:55:17;;;;;;;21.67;11.97;;;7.90;75.20;;;;;;5056021;28;20494;-48
2022/03/27 05:57:44;;;;;;;17.50;12.10;;;7.90;75.20;;;;;;5060886;28;20455;-48
2022/03/27 06:00:12;;;;;;;18.07;11.20;;;7.90;75.20;;;;;;5060316;28;20456;-48
2022/03/27 06:02:39;;;;;;;18.93;13.30;;;7.90;75.20;;;;;;5040910;28;20467;-48
2022/03/27 06:05:07;;;;;;;22.70;13.63;;;7.90;75.40;;;;;;5059590;28;20467;-47
2022/03/27 06:07:48;;;;;;;16.33;11.70;;;7.90;75.30;;;;;;5060112;28;20541;-48
2022/03/27 06:10:18;;;;;;;16.90;11.07;;;7.90;75.40;;;;;;5056286;28;20499;-48
2022/03/27 06:12:45;;;;;;;19.10;12.40;;;7.90;75.30;;;;;;5056575;28;20965;-47
2022/03/27 06:15:13;;;;;;;18.90;13.10;;;8.00;75.30;;;;;;5058432;28;21033;-47
2022/03/27 06:17:42;;;;;;;21.67;12.33;;;8.00;75.30;;;;;;5056309;28;20454;-47
2022/03/27 06:20:12;;;;;;;19.33;12.77;;;8.00;75.40;;;;;;5056522;28;20469;-47
2022/03/27 06:22:40;;;;;;;19.57;12.47;;;8.10;75.40;;;;;;5057127;28;20463;-47
2022/03/27 06:25:11;;;;;;;21.70;12.93;;;8.10;75.50;;;;;;5060250;28;20467;-47
2022/03/27 06:27:38;;;;;;;20.00;14.90;;;8.20;75.60;;;;;;5048271;28;21069;-48
2022/03/27 06:30:10;;;;;;;18.93;12.67;;;8.20;75.80;;;;;;5059502;28;20986;-47
2022/03/27 06:32:37;;;;;;;19.10;13.00;;;8.30;75.70;;;;;;5058048;28;20467;-47
2022/03/27 06:35:08;;;;;;;20.90;12.90;;;8.30;75.90;;;;;;5059623;28;20493;-47
2022/03/27 06:37:35;;;;;;;18.77;12.63;;;8.30;75.80;;;;;;5035693;28;20541;-47
2022/03/27 06:40:03;;;;;;;27.67;15.13;;;8.40;76.00;;;;;;5060816;28;20725;-47
2022/03/27 06:42:30;;;;;;;19.20;13.13;;;8.40;76.00;;;;;;5060417;28;20458;-48
2022/03/27 06:44:58;;;;;;;22.83;14.27;;;8.40;75.90;;;;;;5060753;28;20451;-47
2022/03/27 06:47:27;;;;;;;19.57;13.80;;;8.50;75.90;;;;;;5060862;28;20839;-47
2022/03/27 06:49:56;;;;;;;20.83;14.13;;;8.60;75.90;;;;;;5061173;28;20460;-48
2022/03/27 06:52:25;;;;;;;25.43;14.17;;;8.70;75.90;;;;;;5039065;28;20452;-47
2022/03/27 06:54:52;;;;;;;18.97;13.37;;;8.70;76.10;;;;;;5035444;28;20859;-47
2022/03/27 06:57:19;;;;;;;23.50;14.33;;;8.80;76.10;;;;;;5056864;28;20825;-48
2022/03/27 07:05:22;;;;;;;25.20;14.80;;;9.00;75.90;;;;;;5057083;28;20837;-48
2022/03/27 07:07:52;;;;;;;25.00;16.30;;;9.10;76.10;;;;;;5057482;28;20455;-47
2022/03/27 07:10:19;;;;;;;22.63;13.87;;;9.20;76.20;;;;;;5056713;28;20482;-48
2022/03/27 07:12:47;;;;;;;20.13;12.47;;;9.40;76.40;;;;;;5056241;28;20446;-48
2022/03/27 07:15:14;;;;;;;27.80;13.67;;;9.50;76.00;;;;;;5040696;28;20486;-48
2022/03/27 07:17:48;;;;;;;19.07;12.13;;;9.50;76.00;;;;;;5060577;28;20458;-48
2022/03/27 07:20:29;;;;;;;18.13;12.83;;;9.70;76.50;;;;;;5058939;28;20454;-48
2022/03/27 07:22:58;;;;;;;21.93;14.10;;;9.80;76.40;;;;;;5059591;28;20446;-48
2022/03/27 07:25:28;;;;;;;21.20;13.57;;;9.90;76.50;;;;;;5056981;28;20481;-48
2022/03/27 07:27:56;;;;;;;19.90;12.87;;;10.00;76.50;;;;;;5058882;28;20458;-48
2022/03/27 07:30:23;;;;;;;23.67;14.07;;;10.20;76.30;;;;;;5057882;28;20455;-48
2022/03/27 07:32:52;;;;;;;19.93;13.30;;;10.30;76.30;;;;;;5059464;28;20507;-48
2022/03/27 07:35:19;;;;;;;19.90;13.60;;;10.40;76.40;;;;;;5057310;28;20510;-48
2022/03/27 07:37:46;;;;;;;26.80;15.40;;;10.60;76.40;;;;;;5054917;28;20489;-48
2022/03/27 07:40:14;;;;;;;21.57;14.30;;;10.80;76.70;;;;;;5039124;28;20451;-48
2022/03/27 07:42:46;;;;;;;23.83;16.00;;;11.00;76.20;;;;;;5059520;28;20573;-49
2022/03/27 07:45:14;;;;;;;24.43;14.53;;;11.20;76.00;;;;;;5060824;28;20459;-48
2022/03/27 07:47:42;;;;;;;19.50;13.93;;;11.40;76.00;;;;;;5053858;28;20479;-48
2022/03/27 07:50:09;;;;;;;22.63;14.50;;;11.70;75.80;;;;;;5057808;28;20454;-48
2022/03/27 07:52:36;;;;;;;19.97;15.07;;;11.90;75.00;;;;;;5061245;28;20916;-48
2022/03/27 07:55:04;;;;;;;25.60;15.73;;;12.20;74.70;;;;;;5060503;28;20480;-48
2022/03/27 07:57:31;;;;;;;21.40;14.47;;;12.40;74.00;;;;;;5056936;28;20546;-48
2022/03/27 08:00:02;;;;;;;20.00;15.03;;;12.70;73.50;;;;;;5060207;28;20464;-48
2022/03/27 08:02:29;;;;;;;20.27;13.60;;;12.90;72.40;;;;;;5060276;28;20494;-48
2022/03/27 08:04:55;;;;;;;21.40;15.60;;;13.20;71.80;;;;;;5058028;28;20514;-48
2022/03/27 08:07:22;;;;;;;20.07;14.40;;;13.40;71.40;;;;;;5056611;28;20474;-49
2022/03/27 08:09:49;;;;;;;22.03;15.00;;;13.60;70.60;;;;;;5058261;28;20471;-47
2022/03/27 08:12:17;;;;;;;24.40;15.60;;;13.80;70.10;;;;;;5041106;28;20905;-48
2022/03/27 08:14:46;;;;;;;21.20;14.77;;;14.10;69.60;;;;;;5056824;28;20483;-48
2022/03/27 08:17:12;;;;;;;19.90;15.03;;;14.30;69.00;;;;;;5060534;28;20454;-48
2022/03/27 08:19:40;;;;;;;22.50;13.83;;;14.50;68.00;;;;;;5045911;28;20470;-49
2022/03/27 08:22:07;;;;;;;19.90;14.37;;;14.80;67.20;;;;;;5060639;28;20471;-49
2022/03/27 08:24:34;;;;;;;25.13;15.03;;;15.00;65.90;;;;;;5058722;28;20479;-48
2022/03/27 08:27:02;;;;;;;22.47;15.00;;;15.20;65.50;;;;;;5057491;28;20992;-47
2022/03/27 08:29:32;;;;;;;19.20;14.00;;;15.40;64.50;;;;;;5061659;28;20467;-47
2022/03/27 08:32:02;;;;;;;21.27;15.10;;;15.60;64.20;;;;;;5063355;28;20471;-49
2022/03/27 08:34:31;;;;;;;19.80;14.33;;;15.80;63.60;;;;;;5061984;28;20595;-49
2022/03/27 08:37:01;;;;;;;25.07;16.53;;;16.00;62.90;;;;;;5063814;28;21092;-49
2022/03/27 08:39:27;;;;;;;16.90;13.10;;;16.20;62.50;;;;;;5061732;28;20469;-49
2022/03/27 08:41:55;;;;;;;20.47;16.00;;;16.40;61.90;;;;;;5061078;28;20451;-49
2022/03/27 08:44:26;;;;;;;21.10;15.73;;;16.50;61.10;;;;;;5055290;28;21016;-49
2022/03/27 08:46:56;;;;;;;19.87;14.90;;;16.70;61.20;;;;;;5058290;28;20892;-49
2022/03/27 08:49:39;;;;;;;19.97;13.60;;;16.90;60.00;;;;;;5061653;28;20543;-50
2022/03/27 08:52:29;;;;;;;16.97;13.07;;;17.10;59.50;;;;;;5063171;28;20452;-49
2022/03/27 08:55:02;;;;;;;17.03;13.37;;;17.30;59.00;;;;;;5060016;28;20489;-49
2022/03/27 08:57:55;;;;;;;19.07;14.37;;;17.60;58.50;;;;;;5043469;28;20468;-49
2022/03/27 09:00:24;;;;;;;17.27;13.93;;;17.90;57.70;;;;;;5044255;28;20465;-50
2022/03/27 09:02:55;;;;;;;20.40;15.93;;;18.10;56.70;;;;;;5030565;28;20489;-49
2022/03/27 09:05:23;;;;;;;23.90;15.60;;;18.40;56.00;;;;;;5061653;28;20849;-49
2022/03/27 09:07:52;;;;;;;21.37;14.07;;;18.50;55.10;;;;;;5047917;28;20462;-49
2022/03/27 09:10:21;;;;;;;17.37;14.27;;;18.60;54.20;;;;;;5061755;28;20465;-49
2022/03/27 09:12:51;;;;;;;23.33;14.90;;;18.70;53.70;;;;;;5060173;28;20548;-48
2022/03/27 09:15:19;;;;;;;21.20;14.20;;;18.80;53.80;;;;;;5062306;28;21020;-49
2022/03/27 09:17:57;;;;;;;22.30;14.77;;;18.90;53.30;;;;;;5059549;28;20557;-48
2022/03/27 09:20:30;;;;;;;20.50;15.13;;;19.10;52.90;;;;;;5056265;28;20499;-48
2022/03/27 09:23:14;;;;;;;22.30;14.80;;;19.20;52.60;;;;;;5059446;28;20465;-48
2022/03/27 09:25:58;;;;;;;17.77;14.10;;;19.30;52.50;;;;;;5056588;28;20841;-48
2022/03/27 09:28:36;;;;;;;18.50;14.70;;;19.50;52.00;;;;;;5044735;28;20471;-48
2022/03/27 09:31:21;;;;;;;18.80;14.40;;;19.70;52.40;;;;;;5044994;28;20504;-49
2022/03/27 09:33:52;;;;;;;20.93;15.43;;;19.70;51.10;;;;;;5057151;28;20467;-49
2022/03/27 09:36:19;;;;;;;18.10;14.20;;;19.70;50.90;;;;;;5051877;28;20508;-49
2022/03/27 09:38:57;;;;;;;19.20;14.53;;;19.90;51.60;;;;;;5058571;28;20838;-49
2022/03/27 09:41:44;;;;;;;17.27;13.80;;;20.00;51.30;;;;;;5058603;28;20465;-48
2022/03/27 09:44:17;;;;;;;21.33;15.50;;;20.10;50.50;;;;;;5055666;28;20470;-48
2022/03/27 09:46:55;;;;;;;21.43;15.57;;;20.30;50.80;;;;;;5029792;28;20484;-49
2022/03/27 09:49:37;;;;;;;19.03;14.77;;;20.50;50.30;;;;;;5058699;28;20480;-49
2022/03/27 09:52:20;;;;;;;18.33;13.23;;;20.70;49.60;;;;;;5061973;28;20460;-49
2022/03/27 09:54:57;;;;;;;19.63;15.10;;;20.90;49.20;;;;;;5059701;28;20858;-50
2022/03/27 09:57:32;;;;;;;21.10;16.23;;;21.20;49.20;;;;;;5059714;28;20454;-49
2022/03/27 10:00:12;;;;;;;18.73;14.07;;;21.30;48.30;;;;;;5056633;28;20939;-49
2022/03/27 10:02:40;;;;;;;16.93;13.50;;;21.40;48.00;;;;;;5058593;28;20537;-49
2022/03/27 10:05:12;;;;;;;16.93;14.43;;;21.50;48.10;;;;;;5056941;28;20478;-49
2022/03/27 10:07:54;;;;;;;18.40;14.17;;;21.70;48.00;;;;;;5044198;28;20504;-49
2022/03/27 10:10:23;;;;;;;18.60;14.47;;;21.80;47.40;;;;;;5059630;28;20470;-49
2022/03/27 10:12:54;;;;;;;18.07;13.83;;;21.80;45.90;;;;;;5043896;28;20471;-49
2022/03/27 10:15:23;;;;;;;22.67;16.23;;;21.90;46.20;;;;;;5061186;28;20498;-49
2022/03/27 10:18:12;;;;;;;18.43;13.87;;;22.00;45.90;;;;;;5055791;28;20444;-49
2022/03/27 10:20:40;;;;;;;23.93;20.30;;;22.20;45.40;;;;;;5059712;28;21050;-49
2022/03/27 10:23:09;;;;;;;25.43;20.20;;;22.50;45.10;;;;;;5058626;28;20453;-49
2022/03/27 10:25:41;;;;;;;20.20;15.10;;;22.80;45.30;;;;;;5059273;28;21049;-49
2022/03/27 10:28:08;;;;;;;16.80;13.67;;;23.00;43.90;;;;;;5060652;28;20468;-50
2022/03/27 10:30:35;;;;;;;20.30;14.07;;;23.30;43.40;;;;;;5058344;28;20551;-50
2022/03/27 10:33:03;;;;;;;18.73;15.10;;;23.60;42.80;;;;;;5055569;28;20499;-48
2022/03/27 10:35:44;;;;;;;17.43;14.33;;;23.90;42.00;;;;;;5059680;28;21024;-50
2022/03/27 10:38:28;;;;;;;15.03;13.33;;;24.10;41.70;;;;;;5057608;28;20543;-50
2022/03/27 10:41:23;;;;;;;15.97;12.90;;;24.50;41.20;;;;;;5057503;28;20467;-50
2022/03/27 10:43:56;;;;;;;17.80;13.07;;;24.70;40.00;;;;;;5055008;28;20942;-50
2022/03/27 10:46:27;;;;;;;16.10;12.93;;;25.10;39.90;;;;;;5061732;28;20466;-50
2022/03/27 10:49:12;;;;;;;15.33;12.97;;;25.20;39.10;;;;;;5058245;28;20449;-49
2022/03/27 10:51:48;;;;;;;15.90;12.60;;;25.50;39.80;;;;;;5059464;28;20461;-50
2022/03/27 10:54:20;;;;;;;18.03;13.43;;;25.70;39.00;;;;;;5057709;28;20465;-50
2022/03/27 10:56:49;;;;;;;18.20;12.27;;;25.80;37.50;;;;;;5054085;28;20587;-50
2022/03/27 10:59:18;;;;;;;15.27;13.37;;;25.90;36.70;;;;;;5059681;28;20556;-50
2022/03/27 11:01:52;;;;;;;15.97;11.63;;;26.00;37.10;;;;;;5059941;28;20981;-50
2022/03/27 11:04:35;;;;;;;17.70;12.47;;;26.20;37.60;;;;;;5039614;28;20460;-49
2022/03/27 11:07:18;;;;;;;18.60;12.97;;;26.30;37.80;;;;;;5057728;28;20523;-50
2022/03/27 11:09:45;;;;;;;14.27;10.73;;;26.40;37.30;;;;;;5055385;28;20468;-50
2022/03/27 11:12:24;;;;;;;15.17;11.33;;;26.40;36.10;;;;;;5056792;28;20449;-50
2022/03/27 11:14:54;;;;;;;11.87;10.53;;;26.50;35.60;;;;;;5060270;28;20471;-50
2022/03/27 11:17:34;;;;;;;11.83;9.17;;;26.60;35.10;;;;;;5059085;28;20454;-50
2022/03/27 11:20:28;;;;;;;12.50;9.77;;;26.40;34.10;;;;;;5056867;28;20542;-50
2022/03/27 11:22:59;;;;;;;12.60;9.40;;;26.40;34.80;;;;;;5029800;28;20468;-50
2022/03/27 11:25:38;;;;;;;9.03;7.70;;;26.50;34.50;;;;;;5056779;28;20450;-49
2022/03/27 11:28:18;;;;;;;13.10;10.57;;;26.40;33.50;;;;;;5058441;28;20463;-50
2022/03/27 11:30:48;;;;;;;12.17;10.43;;;26.40;34.30;;;;;;5059557;28;20456;-50
2022/03/27 11:33:20;;;;;;;16.43;11.90;;;26.30;35.20;;;;;;5057925;28;20529;-50
2022/03/27 11:36:02;;;;;;;12.47;11.17;;;26.20;35.50;;;;;;5054699;28;20710;-50
2022/03/27 11:38:34;;;;;;;14.37;10.90;;;26.30;36.10;;;;;;5054555;28;20449;-50
2022/03/27 11:41:22;;;;;;;12.67;9.83;;;26.20;35.80;;;;;;5057704;28;20452;-50
2022/03/27 11:43:50;;;;;;;19.10;10.03;;;26.10;36.30;;;;;;5040576;28;20870;-50
2022/03/27 11:46:24;;;;;;;13.10;10.23;;;26.00;36.40;;;;;;5057802;28;20490;-50
2022/03/27 11:48:59;;;;;;;12.77;10.53;;;25.90;36.60;;;;;;5050623;28;20572;-50
2022/03/27 11:51:27;;;;;;;13.23;10.90;;;25.80;36.60;;;;;;5056656;28;20824;-50
2022/03/27 11:53:56;;;;;;;13.37;10.80;;;25.60;36.80;;;;;;5047010;28;20485;-50
2022/03/27 11:56:24;;;;;;;13.00;9.97;;;25.30;36.50;;;;;;5057179;28;20546;-50
2022/03/27 11:59:12;;;;;;;10.27;9.00;;;25.00;35.80;;;;;;5041936;28;20461;-50
2022/03/27 12:01:39;;;;;;;15.50;9.40;;;24.80;37.00;;;;;;5056815;28;20990;-50
2022/03/27 12:04:07;;;;;;;14.80;10.40;;;24.70;37.80;;;;;;5056289;28;20480;-49
2022/03/27 12:06:34;;;;;;;12.13;10.13;;;24.50;36.80;;;;;;5046850;28;21163;-50
2022/03/27 12:09:00;;;;;;;14.30;11.00;;;24.30;37.70;;;;;;5054239;28;20478;-50
2022/03/27 12:11:27;;;;;;;13.43;10.47;;;24.20;37.90;;;;;;5056788;28;20473;-50
2022/03/27 12:13:56;;;;;;;11.73;9.73;;;24.00;38.00;;;;;;5056797;28;20476;-50
2022/03/27 12:16:25;;;;;;;14.03;10.13;;;23.90;37.40;;;;;;5059222;28;20541;-50
2022/03/27 12:18:53;;;;;;;15.57;11.17;;;23.90;37.60;;;;;;5061361;28;20464;-49
2022/03/27 12:21:22;;;;;;;13.80;10.63;;;23.80;38.10;;;;;;5058920;28;20524;-49
2022/03/27 12:23:55;;;;;;;12.87;10.20;;;23.70;38.30;;;;;;5059935;28;20515;-49
2022/03/27 12:29:40;;;;;;;14.57;11.00;;;23.50;39.00;;;;;;5061250;28;20502;-49
2022/03/27 12:32:08;;;;;;;16.63;11.40;;;23.40;38.50;;;;;;5057345;28;20464;-49
2022/03/27 12:34:41;;;;;;;13.40;11.03;;;23.30;38.80;;;;;;5050953;28;20473;-49
2022/03/27 12:37:21;;;;;;;13.47;10.10;;;23.30;40.00;;;;;;5056724;28;20563;-49
2022/03/27 12:39:48;;;;;;;17.40;11.37;;;23.30;39.40;;;;;;5056028;28;20546;-49
2022/03/27 12:42:35;;;;;;;13.40;10.90;;;23.10;39.10;;;;;;5050479;28;20540;-49
2022/03/27 12:45:07;;;;;;;11.67;9.43;;;23.10;40.40;;;;;;5057579;28;20480;-49
2022/03/27 12:47:37;;;;;;;13.87;10.80;;;23.00;41.10;;;;;;5055124;28;20491;-49
2022/03/27 12:50:06;;;;;;;12.13;10.43;;;23.10;41.50;;;;;;5055744;28;20538;-49
2022/03/27 12:52:52;;;;;;;13.70;11.00;;;23.10;41.20;;;;;;5055731;28;20445;-49
2022/03/27 12:55:19;;;;;;;12.40;9.90;;;23.20;41.10;;;;;;5057632;28;21271;-49
2022/03/27 12:57:58;;;;;;;14.13;10.30;;;23.40;41.60;;;;;;5056251;28;20981;-49
2022/03/27 13:00:31;;;;;;;10.70;8.50;;;23.40;40.90;;;;;;5060475;28;20445;-49